Main page
Satellite images 15-day forecastsClimateMarine weather Cyclones Lightning AirportsFAQ Newsletter About
Weather : Europe Africa North America South America Asia Australia-Oceania Others
Languages Contact

Christchurch, New Zealand

latitude: 43-29S, longitude: 172-33E, elevation: 38 m


METAR: NZCH 290200Z AUTO 36005KT 9999 NCD 12/07 Q1010 NOSIG
short-TAF: missing
long-TAF: NZCH 281706Z 2818/2918 02005KT 9999 FEW070 BECMG 2900/2902 32015KT BECMG 2905/2907 32005KT

Time: 14:33 (02:33 UTC)

Current weather observation

The report was made 33 minutes ago, at 02:00 UTC  
Wind 05 kt from the North
Temperature 12°C
Humidity 71%
Pressure 1010 hPa
Visibility 10 km or more

Change units

Forecast

The report was made 9 hours and 24 minutes ago, at 17:09 UTC  
Forecast valid from 28 at 18 UTC to 29 at 18 UTC
Wind 05 kt from the North/Northeast
Visibility 10 km or more
Few clouds at a height of 7000 ft
Becoming
from 29 at 00 UTC to 29 at 02 UTC
Wind 15 kt from the Northwest
Becoming
from 29 at 05 UTC to 29 at 07 UTC
Wind 05 kt from the Northwest
The information on this site is subject to a disclaimer
Weather : Europe Africa North America South America Asia Australia-Oceania Others
Satellite images 15-day forecastsClimateMarine weather Cyclones Lightning AirportsFAQ Languages Contact Newsletter About